»·PEaware :: N261MG KBZN-KSUN

N261MG :: KBZN-KSUN

FLIGHT INFORMATION

Flight Status: Arrived
Operator: Privately registered:
United States
More flights under this callsign
Pilot: Marty O. (15602)
Aircraft: ECLIPSE 500
(EA50)
More flights by this aircraft type
Origin: KBZN Gallatin
United States
Destination: KSUN Friedman Meml
United States
More flights between these airports :: More routes between these airports
Route: TERRX4 DBS HLE
File this flight plan on PilotEdge
Remarks:
Altitude:
(Current/Filed)
22,000ft
Speed:
(Current/Filed)
340kts
Departed: 04-Jan-21 09:38 PM
Arrived: 04-Jan-21 10:41 PM
Distance/Time
Traveled:
191nm/1:02
Distance/Time
To Go:
Arrived

Flight Plot

Page will automatically refresh every two minutes.

Flight plan parsing failed; only flown route is shown


Map Options




Map Legend


Flown Route
Filed Route
Departure Airport
Arrival Airport
Navaid (VOR, NDB)
Fix

Horizontal Profiles

Position Reports

Time Latitude Longitude Heading Altitude Ground
Speed
04-Jan-21 21:18 45.772870 -111.152007 318 4474ft 0kts
04-Jan-21 21:19 45.772870 -111.152007 318 4474ft 0kts
04-Jan-21 21:20 45.772870 -111.152007 318 4474ft 0kts
04-Jan-21 21:21 45.772870 -111.152007 318 4474ft 0kts
04-Jan-21 21:22 45.772870 -111.152007 318 4474ft 0kts
04-Jan-21 21:23 45.772870 -111.152007 318 4474ft 0kts
04-Jan-21 21:24 45.772870 -111.152007 318 4474ft 0kts
04-Jan-21 21:25 45.772870 -111.152007 318 4474ft 0kts
04-Jan-21 21:26 45.772870 -111.152007 318 4474ft 0kts
04-Jan-21 21:27 45.772870 -111.152007 318 4474ft 0kts
04-Jan-21 21:28 45.773662 -111.152864 329 4474ft 8kts
04-Jan-21 21:29 45.775468 -111.153814 3 4474ft 3kts
04-Jan-21 21:30 45.777470 -111.155887 316 4474ft 13kts
04-Jan-21 21:31 45.779826 -111.159139 316 4474ft 7kts
04-Jan-21 21:32 45.780609 -111.160208 317 4474ft 8kts
04-Jan-21 21:33 45.783402 -111.164089 316 4474ft 14kts
04-Jan-21 21:34 45.785752 -111.167400 316 4474ft 1kts
04-Jan-21 21:35 45.786791 -111.168132 28 4474ft 3kts
04-Jan-21 21:36 45.787379 -111.165555 135 4474ft 24kts
04-Jan-21 21:37 45.766300 -111.136897 147 5172ft 159kts
04-Jan-21 21:38 45.726468 -111.170083 225 6830ft 187kts
04-Jan-21 21:39 45.699974 -111.223424 278 9925ft 166kts
04-Jan-21 21:40 45.707417 -111.288707 270 12490ft 172kts
04-Jan-21 21:41 45.714957 -111.357026 270 14879ft 177kts
04-Jan-21 21:42 45.722909 -111.427403 268 17466ft 161kts
04-Jan-21 21:43 45.729893 -111.490081 267 19494ft 159kts
04-Jan-21 21:44 45.706307 -111.524215 200 21278ft 158kts
04-Jan-21 21:45 45.657682 -111.543379 205 21839ft 212kts
04-Jan-21 21:46 45.592672 -111.571916 203 21853ft 271kts
04-Jan-21 21:47 45.515003 -111.605668 202 21858ft 306kts
04-Jan-21 21:48 45.430435 -111.642328 202 21855ft 323kts
04-Jan-21 21:49 45.344217 -111.679556 201 21865ft 324kts
04-Jan-21 21:50 45.257670 -111.716856 201 21876ft 324kts
04-Jan-21 21:51 45.170942 -111.754131 201 21874ft 324kts
04-Jan-21 21:52 45.083276 -111.791696 201 21881ft 325kts
04-Jan-21 21:53 44.996228 -111.828872 201 21872ft 328kts
04-Jan-21 21:54 44.908678 -111.866129 200 21877ft 329kts
04-Jan-21 21:55 44.821264 -111.903183 200 21878ft 329kts
04-Jan-21 21:56 44.733900 -111.940126 200 21902ft 328kts
04-Jan-21 21:57 44.646409 -111.977034 201 21874ft 329kts
04-Jan-21 21:58 44.558997 -112.013775 200 21921ft 328kts
04-Jan-21 21:59 44.472213 -112.050097 200 21983ft 324kts
04-Jan-21 22:00 44.385761 -112.086200 201 21981ft 326kts
04-Jan-21 22:01 44.298780 -112.122417 201 21978ft 326kts
04-Jan-21 22:02 44.211039 -112.158839 201 21985ft 325kts
04-Jan-21 22:03 44.137215 -112.189380 201 21983ft 326kts
04-Jan-21 22:04 44.072804 -112.253678 241 21989ft 321kts
04-Jan-21 22:05 44.032361 -112.366026 240 21979ft 321kts
04-Jan-21 22:06 43.992191 -112.476849 241 21960ft 321kts
04-Jan-21 22:07 43.951943 -112.587466 241 21977ft 321kts
04-Jan-21 22:08 43.911328 -112.698574 240 21954ft 321kts
04-Jan-21 22:09 43.870926 -112.808782 240 21972ft 321kts
04-Jan-21 22:10 43.830129 -112.919746 239 21973ft 325kts
04-Jan-21 22:11 43.788669 -113.031885 238 21969ft 329kts
04-Jan-21 22:12 43.751212 -113.132669 238 21962ft 330kts
04-Jan-21 22:13 43.714896 -113.229564 240 21946ft 332kts
04-Jan-21 22:14 43.667066 -113.357881 241 21945ft 335kts
04-Jan-21 22:15 43.624010 -113.472596 241 21952ft 335kts
04-Jan-21 22:16 43.580750 -113.587314 241 21954ft 335kts
04-Jan-21 22:17 43.537570 -113.701325 240 21964ft 335kts
04-Jan-21 22:18 43.476454 -113.794794 191 21868ft 345kts
04-Jan-21 22:19 43.383409 -113.812845 192 19589ft 306kts
04-Jan-21 22:20 43.305120 -113.828623 192 16766ft 260kts
04-Jan-21 22:21 43.240389 -113.841945 192 15992ft 242kts
04-Jan-21 22:22 43.178801 -113.854887 192 15992ft 255kts
04-Jan-21 22:23 43.111577 -113.869015 192 16002ft 256kts
04-Jan-21 22:24 43.045612 -113.882469 192 16014ft 228kts
04-Jan-21 22:25 42.981499 -113.894097 192 16016ft 233kts
04-Jan-21 22:26 42.917586 -113.904586 212 16014ft 227kts
04-Jan-21 22:27 42.933223 -113.970335 334 13619ft 284kts
04-Jan-21 22:28 43.003516 -114.005973 335 10110ft 243kts
04-Jan-21 22:30 43.053956 -114.031637 333 10011ft 167kts
04-Jan-21 22:31 43.106261 -114.058516 336 10008ft 226kts
04-Jan-21 22:32 43.165295 -114.088587 336 9535ft 223kts
04-Jan-21 22:33 43.221242 -114.117109 337 9244ft 222kts
04-Jan-21 22:34 43.269902 -114.141912 337 8990ft 220kts
04-Jan-21 22:35 43.316836 -114.165817 337 9117ft 209kts
04-Jan-21 22:36 43.353939 -114.188021 332 8336ft 128kts
04-Jan-21 22:37 43.392345 -114.214274 332 7530ft 127kts
04-Jan-21 22:38 43.423717 -114.235924 333 6860ft 126kts
04-Jan-21 22:39 43.455047 -114.257609 333 6190ft 126kts
04-Jan-21 22:40 43.486579 -114.279479 333 5592ft 118kts
04-Jan-21 22:41 43.502340 -114.294200 324 5322ft 23kts
04-Jan-21 22:42 43.503617 -114.296697 214 5322ft 5kts
04-Jan-21 22:43 43.501410 -114.294683 163 5322ft 10kts

Navigation Log

Ident Type
Flight plan parsing failed, navigation log unavailable